Time;durP1;ratioP1;P1;durP2;ratioP2;P2;SDS_P1;SDS_P2;PMS_P1;PMS_P2;Temp;Humidity;BMP_temperature;BMP_pressure;BME280_temperature;BME280_humidity;BME280_pressure;Samples;Min_cycle;Max_cycle;Signal;HPM_P1;HPM_P2
2022/03/07 00:00:50;;;;;;;4.60;1.65;;;;;;;;;;5047798;28;20033;-54
2022/03/07 00:03:16;;;;;;;2.38;1.23;;;;;;;;;;5046704;28;20122;-54
2022/03/07 00:05:42;;;;;;;5.43;1.60;;;;;;;;;;5047318;28;20163;-53
2022/03/07 00:08:08;;;;;;;5.97;1.63;;;;;;;;;;5047572;28;20123;-54
2022/03/07 00:10:34;;;;;;;3.95;1.80;;;;;;;;;;5047185;28;20166;-54
2022/03/07 00:13:00;;;;;;;3.42;1.38;;;;;;;;;;5047743;28;20143;-55
2022/03/07 00:15:26;;;;;;;4.90;1.52;;;;;;;;;;5047193;28;20051;-53
2022/03/07 00:17:52;;;;;;;5.53;1.73;;;;;;;;;;5037286;28;20535;-56
2022/03/07 00:20:18;;;;;;;4.13;1.48;;;;;;;;;;5046959;28;20104;-53
2022/03/07 00:22:44;;;;;;;3.28;1.30;;;;;;;;;;5051518;28;20113;-54
2022/03/07 00:25:11;;;;;;;4.57;1.50;;;;;;;;;;5051469;28;20029;-53
2022/03/07 00:27:37;;;;;;;2.85;1.50;;;;;;;;;;5051391;28;20040;-55
2022/03/07 00:30:03;;;;;;;4.47;1.60;;;;;;;;;;5050639;28;20041;-53
2022/03/07 00:32:29;;;;;;;6.07;1.30;;;;;;;;;;5046024;28;20116;-54
2022/03/07 00:34:56;;;;;;;8.18;2.13;;;;;;;;;;5049819;28;20036;-52
2022/03/07 00:37:22;;;;;;;3.67;1.52;;;;;;;;;;5050365;28;20123;-52
2022/03/07 00:39:48;;;;;;;3.08;1.45;;;;;;;;;;5051093;28;20094;-53
2022/03/07 00:42:14;;;;;;;3.58;1.60;;;;;;;;;;5051149;28;20027;-56
2022/03/07 00:44:40;;;;;;;3.88;1.55;;;;;;;;;;5051210;28;20112;-55
2022/03/07 00:47:06;;;;;;;3.05;1.48;;;;;;;;;;5051555;28;20112;-53
2022/03/07 00:49:32;;;;;;;2.53;1.27;;;;;;;;;;5051237;28;20107;-54
2022/03/07 00:51:58;;;;;;;2.75;1.17;;;;;;;;;;5051312;28;20510;-57
2022/03/07 00:54:24;;;;;;;2.55;1.00;;;;;;;;;;5051552;28;20032;-55
2022/03/07 00:56:50;;;;;;;4.57;1.50;;;;;;;;;;5052028;28;20032;-54
2022/03/07 00:59:16;;;;;;;4.57;1.45;;;;;;;;;;5051061;28;20135;-54
2022/03/07 01:01:42;;;;;;;3.90;1.90;;;;;;;;;;5051730;28;20036;-57
2022/03/07 01:04:08;;;;;;;5.57;1.50;;;;;;;;;;5051497;28;20024;-55
2022/03/07 01:06:34;;;;;;;5.65;1.65;;;;;;;;;;5051552;28;20534;-54
2022/03/07 01:09:00;;;;;;;4.38;1.60;;;;;;;;;;5052012;28;20076;-55
2022/03/07 01:11:26;;;;;;;5.53;1.60;;;;;;;;;;5051106;28;20052;-56
2022/03/07 01:13:52;;;;;;;3.17;1.20;;;;;;;;;;5043240;28;20549;-55
2022/03/07 01:16:18;;;;;;;2.75;1.27;;;;;;;;;;5044882;28;20021;-49
2022/03/07 01:18:44;;;;;;;4.03;1.33;;;;;;;;;;5051277;28;20177;-48
2022/03/07 01:21:12;;;;;;;4.30;1.35;;;;;;;;;;5051169;28;20017;-56
2022/03/07 01:23:38;;;;;;;6.35;1.45;;;;;;;;;;5051277;28;20048;-52
2022/03/07 01:26:04;;;;;;;5.43;1.30;;;;;;;;;;5050863;28;20049;-55
2022/03/07 01:28:30;;;;;;;2.90;1.30;;;;;;;;;;5047836;28;20118;-55
2022/03/07 01:30:56;;;;;;;2.15;1.33;;;;;;;;;;5037319;28;20025;-53
2022/03/07 01:33:22;;;;;;;3.72;1.35;;;;;;;;;;5050672;28;20037;-49
2022/03/07 01:35:48;;;;;;;2.72;1.20;;;;;;;;;;5051070;28;20025;-54
2022/03/07 01:38:14;;;;;;;4.30;1.40;;;;;;;;;;5050739;28;20387;-48
2022/03/07 01:40:41;;;;;;;3.28;1.40;;;;;;;;;;5050736;28;20032;-54
2022/03/07 01:43:08;;;;;;;3.47;1.48;;;;;;;;;;5050096;28;20032;-54
2022/03/07 01:45:34;;;;;;;3.55;1.52;;;;;;;;;;5049905;28;20032;-54
2022/03/07 01:48:01;;;;;;;2.38;1.27;;;;;;;;;;5045141;28;20035;-53
2022/03/07 01:50:28;;;;;;;5.13;1.75;;;;;;;;;;5050606;28;20101;-55
2022/03/07 01:52:54;;;;;;;4.03;1.70;;;;;;;;;;5050513;28;20479;-51
2022/03/07 01:55:20;;;;;;;5.00;1.50;;;;;;;;;;5050715;28;20025;-53
2022/03/07 01:57:47;;;;;;;2.75;1.20;;;;;;;;;;5050073;28;20423;-53
2022/03/07 02:00:18;;;;;;;4.05;1.50;;;;;;;;;;5050017;28;20025;-54
2022/03/07 02:02:44;;;;;;;2.80;1.33;;;;;;;;;;5049998;28;20107;-55
2022/03/07 02:05:10;;;;;;;5.22;1.45;;;;;;;;;;5050344;28;20048;-51
2022/03/07 02:07:37;;;;;;;4.32;1.40;;;;;;;;;;5050434;28;20562;-54
2022/03/07 02:10:04;;;;;;;2.88;1.33;;;;;;;;;;5050487;28;20052;-51
2022/03/07 02:12:30;;;;;;;3.70;1.50;;;;;;;;;;5048727;28;20021;-51
2022/03/07 02:14:58;;;;;;;2.75;1.55;;;;;;;;;;5041366;28;20033;-52
2022/03/07 02:17:24;;;;;;;3.30;1.63;;;;;;;;;;5049907;28;20036;-53
2022/03/07 02:19:51;;;;;;;4.45;1.77;;;;;;;;;;5050389;28;20040;-50
2022/03/07 02:22:17;;;;;;;3.28;1.40;;;;;;;;;;5049925;28;20096;-52
2022/03/07 02:24:43;;;;;;;2.58;1.10;;;;;;;;;;5049980;28;20021;-50
2022/03/07 02:27:10;;;;;;;3.58;1.15;;;;;;;;;;5050203;28;20044;-53
2022/03/07 02:29:37;;;;;;;2.70;1.27;;;;;;;;;;5048454;28;20051;-53
2022/03/07 02:32:04;;;;;;;3.05;1.42;;;;;;;;;;5050049;28;20116;-55
2022/03/07 02:34:30;;;;;;;3.17;1.33;;;;;;;;;;5049490;28;20100;-50
2022/03/07 02:36:56;;;;;;;4.68;1.63;;;;;;;;;;5050151;28;20037;-50
2022/03/07 02:39:22;;;;;;;3.63;1.67;;;;;;;;;;5050031;28;20033;-51
2022/03/07 02:41:48;;;;;;;2.55;1.48;;;;;;;;;;5049665;28;20586;-51
2022/03/07 02:44:15;;;;;;;2.72;1.20;;;;;;;;;;5048205;28;20494;-52
2022/03/07 02:46:41;;;;;;;3.38;1.35;;;;;;;;;;5049928;28;20827;-54
2022/03/07 02:49:07;;;;;;;2.70;1.25;;;;;;;;;;5049655;28;20032;-52
2022/03/07 02:51:34;;;;;;;3.33;1.60;;;;;;;;;;5049669;28;20036;-54
2022/03/07 02:54:00;;;;;;;3.42;2.25;;;;;;;;;;5049375;28;20052;-53
2022/03/07 02:56:26;;;;;;;3.65;1.60;;;;;;;;;;5049401;28;20115;-51
2022/03/07 02:58:52;;;;;;;4.07;1.80;;;;;;;;;;5048957;28;20143;-52
2022/03/07 03:01:18;;;;;;;4.47;1.67;;;;;;;;;;5049445;28;20472;-54
2022/03/07 03:03:45;;;;;;;3.92;1.50;;;;;;;;;;5049139;28;20021;-53
2022/03/07 03:06:11;;;;;;;2.97;1.40;;;;;;;;;;5049253;28;20171;-54
2022/03/07 03:08:37;;;;;;;3.08;1.67;;;;;;;;;;5040142;28;20117;-55
2022/03/07 03:11:04;;;;;;;2.67;1.30;;;;;;;;;;5040660;28;20124;-55
2022/03/07 03:13:30;;;;;;;3.30;1.20;;;;;;;;;;5049076;28;20083;-53
2022/03/07 03:15:56;;;;;;;4.07;1.58;;;;;;;;;;5049160;28;20031;-53
2022/03/07 03:18:22;;;;;;;4.45;1.45;;;;;;;;;;5049319;28;20372;-52
2022/03/07 03:20:49;;;;;;;2.65;1.45;;;;;;;;;;5049131;28;20025;-52
2022/03/07 03:23:16;;;;;;;2.90;1.58;;;;;;;;;;5049190;28;20741;-53
2022/03/07 03:25:42;;;;;;;2.22;1.17;;;;;;;;;;5048907;28;20535;-53
2022/03/07 03:28:08;;;;;;;4.20;1.50;;;;;;;;;;5041237;28;21221;-53
2022/03/07 03:30:34;;;;;;;4.88;1.70;;;;;;;;;;5040051;28;20032;-53
2022/03/07 03:33:00;;;;;;;3.88;1.70;;;;;;;;;;5048998;28;20277;-53
2022/03/07 03:35:27;;;;;;;2.88;1.50;;;;;;;;;;5048822;28;20033;-52
2022/03/07 03:37:53;;;;;;;4.18;1.92;;;;;;;;;;5049306;28;20027;-53
2022/03/07 03:40:19;;;;;;;3.95;1.33;;;;;;;;;;5049174;28;20116;-49
2022/03/07 03:42:45;;;;;;;3.38;1.65;;;;;;;;;;5048250;28;20100;-48
2022/03/07 03:45:11;;;;;;;2.72;1.52;;;;;;;;;;5048654;28;20029;-48
2022/03/07 03:47:41;;;;;;;3.67;1.45;;;;;;;;;;5048793;28;20526;-48
2022/03/07 03:50:09;;;;;;;3.63;1.58;;;;;;;;;;5049160;28;20163;-47
2022/03/07 03:52:35;;;;;;;14.70;1.88;;;;;;;;;;5048705;28;20387;-49
2022/03/07 03:55:02;;;;;;;4.07;1.58;;;;;;;;;;5048709;28;20044;-51
2022/03/07 03:57:29;;;;;;;4.20;1.40;;;;;;;;;;5045305;28;20395;-52
2022/03/07 03:59:55;;;;;;;3.80;1.42;;;;;;;;;;5048338;28;20096;-50
2022/03/07 04:02:21;;;;;;;4.55;1.83;;;;;;;;;;5048049;28;20120;-52
2022/03/07 04:04:47;;;;;;;3.88;1.75;;;;;;;;;;5047876;28;20487;-54
2022/03/07 04:07:14;;;;;;;2.60;1.48;;;;;;;;;;5040375;28;20506;-53
2022/03/07 04:09:40;;;;;;;2.75;1.63;;;;;;;;;;5047337;28;20125;-48
2022/03/07 04:12:06;;;;;;;3.80;1.65;;;;;;;;;;5048622;28;20052;-52
2022/03/07 04:14:32;;;;;;;2.95;1.60;;;;;;;;;;5048470;28;20531;-51
2022/03/07 04:16:59;;;;;;;3.92;1.73;;;;;;;;;;5048586;28;20025;-52
2022/03/07 04:19:25;;;;;;;4.07;1.80;;;;;;;;;;5048957;28;20462;-51
2022/03/07 04:21:52;;;;;;;5.03;2.28;;;;;;;;;;5047243;28;20645;-53
2022/03/07 04:24:18;;;;;;;2.60;1.38;;;;;;;;;;5048600;28;20479;-53
2022/03/07 04:26:44;;;;;;;3.38;2.22;;;;;;;;;;5048138;28;20466;-53
2022/03/07 04:29:10;;;;;;;3.58;1.50;;;;;;;;;;5048690;28;20021;-54
2022/03/07 04:31:37;;;;;;;4.22;2.05;;;;;;;;;;5047699;28;20041;-52
2022/03/07 04:34:03;;;;;;;4.60;1.67;;;;;;;;;;5041116;28;20095;-55
2022/03/07 04:36:30;;;;;;;4.10;2.25;;;;;;;;;;5036669;28;20026;-50
2022/03/07 04:38:56;;;;;;;3.42;1.55;;;;;;;;;;5048222;28;20116;-50
2022/03/07 04:41:22;;;;;;;4.68;1.83;;;;;;;;;;5045977;28;20035;-52
2022/03/07 04:43:48;;;;;;;4.15;1.80;;;;;;;;;;5046300;28;20433;-52
2022/03/07 04:46:14;;;;;;;3.45;1.90;;;;;;;;;;5048414;28;20112;-54
2022/03/07 04:48:40;;;;;;;2.95;1.60;;;;;;;;;;5048407;28;20179;-54
2022/03/07 04:51:06;;;;;;;8.18;3.22;;;;;;;;;;5048063;28;20444;-54
2022/03/07 04:53:32;;;;;;;4.60;2.08;;;;;;;;;;5047511;28;20061;-54
2022/03/07 04:55:58;;;;;;;3.75;1.50;;;;;;;;;;5048165;28;20029;-52
2022/03/07 04:58:24;;;;;;;4.00;1.70;;;;;;;;;;5047714;28;20017;-51
2022/03/07 05:00:52;;;;;;;4.35;2.08;;;;;;;;;;5045060;28;20021;-52
2022/03/07 05:03:18;;;;;;;5.50;2.13;;;;;;;;;;5038455;28;20130;-54
2022/03/07 05:05:44;;;;;;;7.10;1.58;;;;;;;;;;5046271;28;20061;-52
2022/03/07 05:08:10;;;;;;;5.50;1.90;;;;;;;;;;5050126;28;20029;-53
2022/03/07 05:10:36;;;;;;;4.40;2.38;;;;;;;;;;5051192;28;20092;-52
2022/03/07 05:13:02;;;;;;;5.45;2.45;;;;;;;;;;5052045;28;20107;-52
2022/03/07 05:15:28;;;;;;;4.93;2.20;;;;;;;;;;5051755;28;20052;-52
2022/03/07 05:17:54;;;;;;;4.93;2.40;;;;;;;;;;5050926;28;20498;-50
2022/03/07 05:20:22;;;;;;;8.80;2.40;;;;;;;;;;5051146;28;20025;-55
2022/03/07 05:22:48;;;;;;;6.47;2.35;;;;;;;;;;5033331;28;20037;-54
2022/03/07 05:25:16;;;;;;;8.80;2.40;;;;;;;;;;5050143;28;20033;-55
2022/03/07 05:27:42;;;;;;;5.10;2.25;;;;;;;;;;5034525;28;20049;-55
2022/03/07 05:30:09;;;;;;;5.63;2.13;;;;;;;;;;5047750;28;20037;-56
2022/03/07 05:32:35;;;;;;;9.05;3.28;;;;;;;;;;5050846;28;20060;-54
2022/03/07 05:35:01;;;;;;;5.47;2.35;;;;;;;;;;5051350;28;20108;-55
2022/03/07 05:37:27;;;;;;;7.15;2.78;;;;;;;;;;5038145;28;20503;-51
2022/03/07 05:39:53;;;;;;;6.40;2.90;;;;;;;;;;5042742;28;20136;-49
2022/03/07 05:42:21;;;;;;;5.90;3.17;;;;;;;;;;5050684;28;20645;-56
2022/03/07 05:44:47;;;;;;;5.47;2.80;;;;;;;;;;5050699;28;20391;-55
2022/03/07 05:47:13;;;;;;;5.47;2.92;;;;;;;;;;5050690;28;20087;-53
2022/03/07 05:49:44;;;;;;;8.55;2.58;;;;;;;;;;5051056;28;20444;-52
2022/03/07 05:52:24;;;;;;;;;;;;;;;;;;;;;
2022/03/07 05:54:50;;;;;;;10.45;3.83;;;;;;;;;;5049167;28;20033;-55
2022/03/07 05:57:16;;;;;;;8.05;4.13;;;;;;;;;;5050474;28;20518;-54
2022/03/07 05:59:43;;;;;;;12.02;4.40;;;;;;;;;;5050432;28;20075;-53
2022/03/07 06:02:09;;;;;;;25.95;5.72;;;;;;;;;;5049842;28;20028;-51
2022/03/07 06:04:35;;;;;;;13.80;4.88;;;;;;;;;;5033857;28;20083;-53
2022/03/07 06:07:01;;;;;;;11.20;4.43;;;;;;;;;;5048919;28;20045;-52
2022/03/07 06:09:27;;;;;;;14.48;4.60;;;;;;;;;;5049333;28;20039;-54
2022/03/07 06:11:53;;;;;;;14.90;4.15;;;;;;;;;;5039914;28;20041;-54
2022/03/07 06:14:19;;;;;;;13.95;4.03;;;;;;;;;;5049203;28;20100;-47
2022/03/07 06:16:45;;;;;;;12.80;3.95;;;;;;;;;;5049395;28;20601;-51
2022/03/07 06:19:11;;;;;;;9.98;4.05;;;;;;;;;;5048403;28;20025;-52
2022/03/07 06:21:37;;;;;;;10.10;4.28;;;;;;;;;;5048966;28;20036;-49
2022/03/07 06:24:03;;;;;;;12.73;4.05;;;;;;;;;;5049876;28;20061;-49
2022/03/07 06:26:29;;;;;;;11.77;3.70;;;;;;;;;;5048045;28;20033;-52
2022/03/07 06:28:55;;;;;;;14.32;4.57;;;;;;;;;;5049284;28;20028;-56
2022/03/07 06:31:21;;;;;;;9.15;3.55;;;;;;;;;;5048847;28;20363;-55
2022/03/07 06:33:47;;;;;;;10.98;3.22;;;;;;;;;;5038231;28;20562;-52
2022/03/07 06:36:13;;;;;;;10.63;3.08;;;;;;;;;;5035726;28;20570;-54
2022/03/07 06:38:39;;;;;;;11.23;3.00;;;;;;;;;;5049132;28;20028;-54
2022/03/07 06:41:06;;;;;;;9.20;2.90;;;;;;;;;;5048953;28;20029;-54
2022/03/07 06:43:33;;;;;;;9.70;3.35;;;;;;;;;;5048302;28;20439;-57
2022/03/07 06:46:00;;;;;;;9.20;2.90;;;;;;;;;;5049281;28;20021;-49
2022/03/07 06:48:27;;;;;;;9.85;2.92;;;;;;;;;;5045133;28;20104;-54
2022/03/07 06:50:53;;;;;;;6.00;2.25;;;;;;;;;;5038603;28;20115;-52
2022/03/07 06:53:19;;;;;;;8.13;2.60;;;;;;;;;;5041480;28;20063;-54
2022/03/07 06:55:45;;;;;;;8.70;2.30;;;;;;;;;;5037644;28;20025;-50
2022/03/07 06:58:12;;;;;;;8.50;2.80;;;;;;;;;;5044017;28;20151;-54
2022/03/07 07:00:38;;;;;;;8.57;2.55;;;;;;;;;;5048061;28;20104;-51
2022/03/07 07:03:05;;;;;;;5.85;2.38;;;;;;;;;;5048902;28;20101;-53
2022/03/07 07:05:32;;;;;;;15.40;3.05;;;;;;;;;;5048522;28;20049;-52
2022/03/07 07:07:59;;;;;;;8.43;2.45;;;;;;;;;;5048270;28;20044;-52
2022/03/07 07:10:25;;;;;;;8.20;2.55;;;;;;;;;;5047660;28;20037;-54
2022/03/07 07:12:52;;;;;;;16.40;2.17;;;;;;;;;;5042410;28;20031;-55
2022/03/07 07:15:18;;;;;;;6.95;2.22;;;;;;;;;;5041829;28;20021;-52
2022/03/07 07:17:45;;;;;;;5.57;2.00;;;;;;;;;;5039083;28;20034;-54
2022/03/07 07:20:11;;;;;;;6.70;2.25;;;;;;;;;;5037522;28;20021;-53
2022/03/07 07:22:38;;;;;;;6.93;2.33;;;;;;;;;;5039422;28;20452;-53
2022/03/07 07:25:05;;;;;;;5.97;2.13;;;;;;;;;;5041102;28;20013;-53
2022/03/07 07:27:31;;;;;;;6.65;1.75;;;;;;;;;;5036952;28;20021;-53
2022/03/07 07:29:57;;;;;;;7.93;1.60;;;;;;;;;;5032685;28;20048;-53
2022/03/07 07:32:23;;;;;;;6.97;1.60;;;;;;;;;;5031394;28;20037;-53
2022/03/07 07:34:49;;;;;;;10.70;2.55;;;;;;;;;;5039821;28;20116;-51
2022/03/07 07:37:15;;;;;;;10.18;1.75;;;;;;;;;;5037064;28;20030;-52
2022/03/07 07:39:41;;;;;;;10.35;1.90;;;;;;;;;;5040571;28;20021;-48
2022/03/07 07:42:33;;;;;;;5.43;1.65;;;;;;;;;;5034330;28;20092;-55
2022/03/07 07:45:00;;;;;;;5.82;1.45;;;;;;;;;;5037652;28;20033;-54
2022/03/07 07:47:26;;;;;;;8.65;1.85;;;;;;;;;;5035949;28;20112;-54
2022/03/07 07:49:52;;;;;;;10.63;1.50;;;;;;;;;;5044647;28;20029;-52
2022/03/07 07:52:18;;;;;;;9.32;1.83;;;;;;;;;;5047649;28;20058;-54
2022/03/07 07:54:54;;;;;;;11.35;1.63;;;;;;;;;;5043791;28;20510;-55
2022/03/07 07:57:22;;;;;;;8.60;1.63;;;;;;;;;;5046294;28;20480;-51
2022/03/07 07:59:48;;;;;;;29.58;2.75;;;;;;;;;;5048100;28;20079;-52
2022/03/07 08:02:14;;;;;;;8.18;1.65;;;;;;;;;;5045969;28;20033;-50
2022/03/07 08:04:40;;;;;;;11.15;2.10;;;;;;;;;;5037895;28;20037;-52
2022/03/07 08:07:06;;;;;;;8.32;1.98;;;;;;;;;;5048242;28;20029;-52
2022/03/07 08:09:32;;;;;;;11.45;2.17;;;;;;;;;;5044258;28;20454;-53
2022/03/07 08:11:58;;;;;;;30.10;3.30;;;;;;;;;;5039194;28;20045;-50
2022/03/07 08:14:24;;;;;;;8.60;1.88;;;;;;;;;;5045808;28;20029;-52
2022/03/07 08:16:50;;;;;;;19.08;2.03;;;;;;;;;;5045746;28;20033;-52
2022/03/07 08:19:17;;;;;;;17.60;3.28;;;;;;;;;;5045758;28;20036;-50
2022/03/07 08:21:43;;;;;;;9.43;2.65;;;;;;;;;;5041500;28;20018;-48
2022/03/07 08:24:09;;;;;;;11.52;1.80;;;;;;;;;;5027641;28;20032;-51
2022/03/07 08:26:35;;;;;;;10.38;2.50;;;;;;;;;;5042604;28;20025;-50
2022/03/07 08:29:01;;;;;;;11.57;2.50;;;;;;;;;;5034830;28;20067;-53
2022/03/07 08:31:27;;;;;;;14.70;2.40;;;;;;;;;;5041023;28;20474;-56
2022/03/07 08:33:53;;;;;;;12.60;2.83;;;;;;;;;;5033309;28;20036;-48
2022/03/07 08:36:20;;;;;;;13.65;2.22;;;;;;;;;;5038382;28;20138;-49
2022/03/07 08:38:46;;;;;;;17.65;2.55;;;;;;;;;;5035714;28;20025;-54
2022/03/07 08:41:12;;;;;;;8.52;2.15;;;;;;;;;;5038413;28;20113;-55
2022/03/07 08:43:39;;;;;;;11.18;1.88;;;;;;;;;;5044074;28;20028;-51
2022/03/07 08:46:05;;;;;;;8.30;1.73;;;;;;;;;;5045743;28;20021;-51
2022/03/07 08:48:33;;;;;;;13.68;2.15;;;;;;;;;;5047729;28;20539;-54
2022/03/07 08:50:59;;;;;;;4.25;1.33;;;;;;;;;;5047678;28;20040;-50
2022/03/07 08:53:25;;;;;;;7.60;1.85;;;;;;;;;;5042565;28;20025;-48
2022/03/07 08:55:52;;;;;;;6.57;1.40;;;;;;;;;;5041884;28;20063;-56
2022/03/07 08:58:18;;;;;;;11.90;1.85;;;;;;;;;;5046788;28;20028;-54
2022/03/07 09:00:44;;;;;;;5.65;1.70;;;;;;;;;;5041084;28;20021;-53
2022/03/07 09:03:10;;;;;;;5.88;1.45;;;;;;;;;;5037210;28;20025;-52
2022/03/07 09:05:36;;;;;;;6.45;2.10;;;;;;;;;;5033798;28;20458;-51
2022/03/07 09:08:02;;;;;;;8.55;1.65;;;;;;;;;;5030851;28;20505;-55
2022/03/07 09:10:28;;;;;;;5.78;1.45;;;;;;;;;;5036445;28;20076;-52
2022/03/07 09:12:54;;;;;;;7.53;1.38;;;;;;;;;;5035701;28;20057;-53
2022/03/07 09:15:20;;;;;;;9.43;1.70;;;;;;;;;;5034337;28;20041;-50
2022/03/07 09:17:46;;;;;;;5.63;1.58;;;;;;;;;;5033564;28;20071;-54
2022/03/07 09:20:13;;;;;;;7.38;1.23;;;;;;;;;;5032484;28;20037;-55
2022/03/07 09:22:40;;;;;;;3.47;1.38;;;;;;;;;;5032391;28;20049;-57
2022/03/07 09:25:06;;;;;;;6.22;1.88;;;;;;;;;;5034987;28;20044;-54
2022/03/07 09:27:33;;;;;;;3.42;1.25;;;;;;;;;;5035247;28;20492;-56
2022/03/07 09:29:59;;;;;;;5.00;1.10;;;;;;;;;;5035061;28;20133;-56
2022/03/07 09:32:25;;;;;;;3.45;0.95;;;;;;;;;;5034342;28;20140;-54
2022/03/07 09:34:51;;;;;;;7.55;1.27;;;;;;;;;;5031574;28;20183;-53
2022/03/07 09:37:17;;;;;;;8.38;1.42;;;;;;;;;;5035744;28;20052;-52
2022/03/07 09:39:43;;;;;;;7.97;2.15;;;;;;;;;;5031509;28;20037;-52
2022/03/07 09:42:09;;;;;;;8.05;2.33;;;;;;;;;;5035600;28;20033;-54
2022/03/07 09:44:35;;;;;;;4.10;1.23;;;;;;;;;;5033921;28;20037;-54
2022/03/07 09:47:03;;;;;;;3.22;1.17;;;;;;;;;;5033494;28;20124;-55
2022/03/07 09:49:29;;;;;;;6.13;1.42;;;;;;;;;;5033933;28;20051;-54
2022/03/07 09:51:55;;;;;;;7.53;1.60;;;;;;;;;;5034932;28;20045;-54
2022/03/07 09:54:23;;;;;;;8.15;1.75;;;;;;;;;;5032034;28;20024;-52
2022/03/07 09:56:49;;;;;;;5.45;1.77;;;;;;;;;;5032149;28;20098;-54
2022/03/07 09:59:16;;;;;;;6.00;1.48;;;;;;;;;;5037246;28;20552;-53
2022/03/07 10:01:43;;;;;;;4.55;1.30;;;;;;;;;;5033975;28;20123;-54
2022/03/07 10:04:10;;;;;;;5.75;1.48;;;;;;;;;;5034977;28;20114;-53
2022/03/07 10:06:36;;;;;;;4.20;1.20;;;;;;;;;;5033375;28;20430;-54
2022/03/07 10:09:04;;;;;;;7.32;1.00;;;;;;;;;;5031021;28;20090;-51
2022/03/07 10:11:32;;;;;;;3.85;1.50;;;;;;;;;;5034662;28;20133;-54
2022/03/07 10:14:03;;;;;;;6.07;1.25;;;;;;;;;;5031563;28;20475;-53
2022/03/07 10:16:39;;;;;;;5.97;1.35;;;;;;;;;;5032913;28;20037;-51
2022/03/07 10:19:12;;;;;;;6.78;1.50;;;;;;;;;;5030128;28;20072;-52
2022/03/07 10:21:45;;;;;;;5.80;1.20;;;;;;;;;;5035287;28;20041;-52
2022/03/07 10:24:11;;;;;;;5.35;1.85;;;;;;;;;;5035704;28;20083;-54
2022/03/07 10:26:37;;;;;;;7.95;2.17;;;;;;;;;;5034845;28;20032;-52
2022/03/07 10:29:04;;;;;;;5.95;1.10;;;;;;;;;;5035418;28;20025;-53
2022/03/07 10:31:30;;;;;;;5.32;1.15;;;;;;;;;;5032811;28;20103;-55
2022/03/07 10:34:26;;;;;;;4.05;1.35;;;;;;;;;;5033646;28;20420;-57
2022/03/07 10:36:53;;;;;;;7.65;1.27;;;;;;;;;;5033079;28;20128;-50
2022/03/07 10:39:25;;;;;;;6.45;1.60;;;;;;;;;;5033327;28;20036;-53
2022/03/07 10:41:51;;;;;;;5.40;1.40;;;;;;;;;;5033954;28;20045;-51
2022/03/07 10:44:25;;;;;;;5.25;1.27;;;;;;;;;;5033135;28;20067;-52
2022/03/07 10:46:51;;;;;;;4.90;1.27;;;;;;;;;;5032240;28;20047;-52
2022/03/07 10:49:18;;;;;;;4.40;1.45;;;;;;;;;;5030765;28;20025;-54
2022/03/07 10:51:54;;;;;;;3.60;1.27;;;;;;;;;;5034209;28;20076;-55
2022/03/07 10:54:23;;;;;;;5.32;1.30;;;;;;;;;;5030283;28;20159;-54
2022/03/07 10:56:56;;;;;;;7.85;1.27;;;;;;;;;;5029021;28;20386;-51
2022/03/07 10:59:26;;;;;;;2.97;1.02;;;;;;;;;;5033223;28;20028;-52
2022/03/07 11:01:58;;;;;;;3.25;1.23;;;;;;;;;;5030965;28;20029;-53
2022/03/07 11:04:24;;;;;;;4.88;1.70;;;;;;;;;;5047244;28;20029;-56
2022/03/07 11:06:52;;;;;;;19.30;4.47;;;;;;;;;;5047238;28;20410;-53
2022/03/07 11:09:18;;;;;;;18.35;6.82;;;;;;;;;;5033953;28;20033;-54
2022/03/07 11:11:45;;;;;;;14.30;5.50;;;;;;;;;;5040333;28;20398;-56
2022/03/07 11:14:12;;;;;;;19.65;5.53;;;;;;;;;;5045823;28;20029;-52
2022/03/07 11:16:39;;;;;;;15.75;5.93;;;;;;;;;;5047029;28;20028;-53
2022/03/07 11:19:07;;;;;;;18.63;5.60;;;;;;;;;;5046752;28;20021;-50
2022/03/07 11:21:34;;;;;;;20.17;5.28;;;;;;;;;;5047487;28;20546;-49
2022/03/07 11:24:00;;;;;;;15.02;5.18;;;;;;;;;;5047948;28;20086;-49
2022/03/07 11:26:26;;;;;;;17.65;4.43;;;;;;;;;;5047522;28;20055;-55
2022/03/07 11:28:52;;;;;;;17.45;4.63;;;;;;;;;;5047717;28;20032;-56
2022/03/07 11:31:22;;;;;;;14.88;4.90;;;;;;;;;;5047436;28;20491;-56
2022/03/07 11:33:49;;;;;;;;;;;;;;;;;;5047434;28;20033;-52
2022/03/07 11:36:17;;;;;;;14.25;4.65;;;;;;;;;;5044694;28;20482;-53
2022/03/07 11:39:03;;;;;;;18.85;4.43;;;;;;;;;;5039483;28;20508;-52
2022/03/07 11:41:31;;;;;;;16.33;4.78;;;;;;;;;;5037584;28;20140;-53
2022/03/07 11:44:01;;;;;;;15.60;4.82;;;;;;;;;;5036645;28;20039;-51
2022/03/07 11:46:32;;;;;;;17.65;4.85;;;;;;;;;;5038719;28;20080;-55
2022/03/07 11:48:58;;;;;;;13.88;4.78;;;;;;;;;;5040291;28;20028;-51
2022/03/07 11:51:25;;;;;;;18.23;4.35;;;;;;;;;;5038027;28;20040;-52
2022/03/07 11:53:52;;;;;;;15.35;4.55;;;;;;;;;;5039259;28;20055;-53
2022/03/07 11:56:35;;;;;;;11.45;4.00;;;;;;;;;;5037605;28;20475;-52
2022/03/07 11:59:02;;;;;;;12.80;4.03;;;;;;;;;;5040516;28;20021;-53
2022/03/07 12:01:31;;;;;;;14.50;3.80;;;;;;;;;;5038003;28;20533;-54
2022/03/07 12:04:08;;;;;;;12.43;3.40;;;;;;;;;;5041677;28;20041;-56
2022/03/07 12:06:40;;;;;;;15.38;4.32;;;;;;;;;;5046855;28;20415;-53
2022/03/07 12:09:07;;;;;;;12.10;3.95;;;;;;;;;;5043426;28;20025;-55
2022/03/07 12:11:34;;;;;;;9.13;3.08;;;;;;;;;;5046629;28;20090;-55
2022/03/07 12:14:05;;;;;;;10.30;3.33;;;;;;;;;;5036012;28;20049;-54
2022/03/07 12:16:36;;;;;;;12.30;3.88;;;;;;;;;;5027143;28;20026;-56
2022/03/07 12:19:08;;;;;;;11.20;4.15;;;;;;;;;;5048925;28;20029;-55
2022/03/07 12:21:34;;;;;;;9.43;3.20;;;;;;;;;;5051119;28;20056;-55
2022/03/07 12:24:01;;;;;;;12.25;3.55;;;;;;;;;;5050512;28;20028;-54
2022/03/07 12:26:27;;;;;;;8.18;2.90;;;;;;;;;;5050571;28;20540;-55
2022/03/07 12:28:53;;;;;;;9.57;3.33;;;;;;;;;;5048529;28;20037;-53
2022/03/07 12:31:19;;;;;;;8.55;2.78;;;;;;;;;;5049735;28;20513;-53
2022/03/07 12:33:46;;;;;;;9.98;2.78;;;;;;;;;;5041595;28;20032;-54
2022/03/07 12:36:14;;;;;;;9.77;3.20;;;;;;;;;;5045510;28;20235;-53
2022/03/07 12:38:47;;;;;;;7.80;3.05;;;;;;;;;;5050115;28;20078;-56
2022/03/07 12:41:14;;;;;;;10.55;3.72;;;;;;;;;;5050530;28;20159;-53
2022/03/07 12:43:40;;;;;;;7.63;3.25;;;;;;;;;;5049840;28;20037;-55
2022/03/07 12:46:06;;;;;;;12.95;3.38;;;;;;;;;;5044219;28;20029;-53
2022/03/07 12:48:35;;;;;;;9.73;3.20;;;;;;;;;;5036592;28;20064;-52
2022/03/07 12:51:08;;;;;;;8.90;2.45;;;;;;;;;;5050131;28;20087;-50
2022/03/07 12:53:35;;;;;;;12.75;2.78;;;;;;;;;;5049798;28;20088;-56
2022/03/07 12:56:03;;;;;;;14.98;2.78;;;;;;;;;;5049614;28;20032;-55
2022/03/07 12:58:29;;;;;;;9.35;2.50;;;;;;;;;;5049208;28;20460;-56
2022/03/07 13:00:57;;;;;;;9.38;2.35;;;;;;;;;;5049021;28;20021;-56
2022/03/07 13:03:24;;;;;;;6.57;2.15;;;;;;;;;;5049472;28;20091;-54
2022/03/07 13:06:09;;;;;;;8.77;2.55;;;;;;;;;;5047706;28;20048;-55
2022/03/07 13:08:44;;;;;;;8.00;2.97;;;;;;;;;;5047537;28;20032;-56
2022/03/07 13:11:11;;;;;;;7.88;2.80;;;;;;;;;;5049833;28;20079;-57
2022/03/07 13:13:43;;;;;;;6.85;2.00;;;;;;;;;;5049176;28;20048;-55
2022/03/07 13:16:09;;;;;;;8.45;2.40;;;;;;;;;;5050112;28;20025;-54
2022/03/07 13:18:35;;;;;;;11.18;2.50;;;;;;;;;;5049887;28;20463;-53
2022/03/07 13:21:02;;;;;;;8.25;2.53;;;;;;;;;;5049729;28;20111;-55
2022/03/07 13:23:28;;;;;;;7.97;2.92;;;;;;;;;;5049734;28;20037;-54
2022/03/07 13:25:55;;;;;;;9.27;2.70;;;;;;;;;;5049068;28;20057;-55
2022/03/07 13:28:27;;;;;;;7.78;2.65;;;;;;;;;;5036741;28;20026;-53
2022/03/07 13:30:53;;;;;;;9.10;2.42;;;;;;;;;;5043062;28;20041;-55
2022/03/07 13:33:20;;;;;;;8.35;2.55;;;;;;;;;;5049616;28;20115;-52
2022/03/07 13:35:46;;;;;;;9.20;2.40;;;;;;;;;;5047864;28;20399;-49
2022/03/07 13:38:21;;;;;;;6.93;2.22;;;;;;;;;;5049524;28;20856;-53
2022/03/07 13:40:48;;;;;;;6.93;2.10;;;;;;;;;;5041575;28;20037;-52
2022/03/07 13:43:15;;;;;;;6.40;2.22;;;;;;;;;;5049163;28;20029;-54
2022/03/07 13:45:42;;;;;;;4.72;1.75;;;;;;;;;;5048871;28;20796;-53
2022/03/07 13:48:10;;;;;;;7.00;2.40;;;;;;;;;;5043810;28;20032;-58
2022/03/07 13:50:37;;;;;;;6.30;1.98;;;;;;;;;;5044272;28;20040;-58
2022/03/07 13:53:03;;;;;;;7.88;2.20;;;;;;;;;;5044224;28;20257;-58
2022/03/07 13:55:32;;;;;;;8.48;2.28;;;;;;;;;;5034601;28;20029;-52
2022/03/07 13:58:00;;;;;;;13.13;2.58;;;;;;;;;;5048910;28;20082;-49
2022/03/07 14:00:27;;;;;;;6.68;1.95;;;;;;;;;;5048796;28;20063;-51
2022/03/07 14:03:04;;;;;;;4.32;1.75;;;;;;;;;;5049650;28;20037;-55
2022/03/07 14:05:46;;;;;;;7.53;2.38;;;;;;;;;;5048389;28;20056;-53
2022/03/07 14:08:12;;;;;;;5.45;1.90;;;;;;;;;;5033745;28;20025;-49
2022/03/07 14:10:38;;;;;;;9.63;3.03;;;;;;;;;;5035605;28;20048;-53
2022/03/07 14:13:04;;;;;;;7.82;2.10;;;;;;;;;;5046878;28;20402;-49
2022/03/07 14:15:38;;;;;;;11.82;2.55;;;;;;;;;;5046405;28;20029;-54
2022/03/07 14:18:06;;;;;;;7.72;2.55;;;;;;;;;;5041511;28;20112;-53
2022/03/07 14:20:33;;;;;;;9.00;3.85;;;;;;;;;;5029649;28;20041;-55
2022/03/07 14:22:59;;;;;;;6.38;3.40;;;;;;;;;;5045464;28;20025;-55
2022/03/07 14:25:26;;;;;;;7.47;2.47;;;;;;;;;;5048652;28;20025;-56
2022/03/07 14:27:52;;;;;;;8.90;2.58;;;;;;;;;;5048245;28;20391;-53
2022/03/07 14:30:18;;;;;;;6.30;2.47;;;;;;;;;;5048507;28;20041;-54
2022/03/07 14:32:44;;;;;;;5.60;2.33;;;;;;;;;;5047551;28;20029;-50
2022/03/07 14:35:10;;;;;;;4.97;2.15;;;;;;;;;;5047834;28;20032;-53
2022/03/07 14:37:37;;;;;;;6.63;3.47;;;;;;;;;;5048182;28;20025;-52
2022/03/07 14:40:07;;;;;;;8.70;4.47;;;;;;;;;;5036393;28;20143;-55